shz.de alexa rank chart, shz.de alexa rank daily changes

shz.de alexa rank chart, shz.de alexa rank daily changes

shz.de
Actual rank:
26 314

RANK HISTORY

Date Rank Diff
2018/09/20 26 314 -9 505
2018/09/19 35 819 +8 255
2018/09/18 27 564 -4 284
2018/09/17 31 848 +10 258
2018/09/16 21 590 -759
2018/09/15 22 349 -6 464
2018/09/14 28 813 +2 741
2018/09/13 26 072 -817
2018/09/12 26 889 +2 243
2018/09/11 24 646 +902
2018/09/10 23 744 +1 818
2018/09/09 21 926 -11 823
2018/09/08 33 749 +8 986
2018/09/07 24 763 +2 918
2018/09/06 21 845 -2 753
2018/09/05 24 598 +6 303
2018/09/04 18 295 -4 934
2018/09/03 23 229 -296
2018/09/02 23 525 -4 519
2018/09/01 28 044 +3 858
2018/08/31 24 186 +320
2018/08/30 23 866 -15 155
2018/08/29 39 021 +4 399
2018/08/28 34 622 +5 679
2018/08/27 28 943 +3 636
2018/08/26 25 307 +1 236
2018/08/25 24 071 -3 947
2018/08/24 28 018 +7 733
2018/08/23 20 285 +904
2018/08/22 19 381 -7 180
2018/08/21 26 561 +9 278
2018/08/20 17 283 -8 180
2018/08/19 25 463 -1 665
2018/08/18 27 128 -77
2018/08/17 27 205 -2 932
2018/08/16 30 137 +1 912
2018/08/15 28 225 +2 272
2018/08/14 25 953 +4 500
2018/08/13 21 453 -5 982
2018/08/12 27 435 +4 238
2018/08/11 23 197 -176
2018/08/10 23 373 -3 685
2018/08/09 27 058 +5 126
2018/08/08 21 932 -5 009
2018/08/07 26 941 +2 003
2018/08/06 24 938 -414
2018/08/05 25 352 -6 410
2018/08/04 31 762 -4 414
2018/08/03 36 176 +10 051
2018/08/02 26 125 -2 348
2018/08/01 28 473 -9 877
2018/07/31 38 350 +17 348
2018/07/30 21 002 -5 541
2018/07/29 26 543 +743
2018/07/28 25 800 -3 675
2018/07/27 29 475 +3 157
2018/07/26 26 318 -6 274
2018/07/25 32 592 +6 533
2018/07/24 26 059 +2 323
2018/07/23 23 736 -3 089
2018/07/22 26 825

WIDGET FOR YOUR SITE

DOMAINS WITH THE NEAREST RANK

Domain Rank
brandenburg.de 26 309
ukrinform.ua 26 310
pace.edu 26 311
reallusion.com 26 312
kisscosplay.moe 26 313
shz.de 26 314
humankinetics.com 26 315
associatedbank.com 26 316
jinair.com 26 317
cngold.org 26 318
mybestmv.com 26 319

DOMAINS WITH THE NEAREST RANK BY TLD .de

Domain Rank
sparda-sw.de 26 241
berliner-volksbank.de 26 248
hessen.de 26 250
uni-bonn.de 26 268
brandenburg.de 26 309
shz.de 26 314
blau.de 26 340
hse24.de 26 350
fraunhofer.de 26 370
prosieben.de 26 520
weser-kurier.de 26 531